Time;durP1;ratioP1;P1;durP2;ratioP2;P2;SDS_P1;SDS_P2;PMS_P1;PMS_P2;Temp;Humidity;BMP_temperature;BMP_pressure;BME280_temperature;BME280_humidity;BME280_pressure;Samples;Min_cycle;Max_cycle;Signal;HPM_P1;HPM_P2
2024/04/11 00:00:51;;;;;;;4.50;2.60;;;;;;;11.28;49.28;100260.56;7561190;26;20616;-83
2024/04/11 00:04:17;;;;;;;4.73;2.77;;;;;;;10.80;50.95;100252.63;7578461;26;20261;-83
2024/04/11 00:07:37;;;;;;;3.03;2.40;;;;;;;11.05;50.39;100263.16;7576336;26;20238;-83
2024/04/11 00:11:00;;;;;;;3.10;2.50;;;;;;;11.01;50.39;100250.19;7577448;26;20273;-84
2024/04/11 00:14:24;;;;;;;6.93;2.90;;;;;;;10.38;51.25;100254.66;7578155;26;20222;-82
2024/04/11 00:17:47;;;;;;;6.57;2.50;;;;;;;10.88;50.77;100261.53;7576657;26;20331;-81
2024/04/11 00:21:10;;;;;;;4.03;2.73;;;;;;;10.74;51.06;100239.81;7562960;26;20611;-83
2024/04/11 00:24:35;;;;;;;4.30;2.60;;;;;;;10.91;49.99;100253.09;7577350;26;20268;-83
2024/04/11 00:27:58;;;;;;;2.77;2.40;;;;;;;10.90;50.56;100240.59;7566341;26;20250;-84
2024/04/11 00:31:18;;;;;;;5.17;2.60;;;;;;;10.69;51.68;100245.69;7556076;26;20245;-84
2024/04/11 00:34:43;;;;;;;7.33;2.43;;;;;;;10.89;51.26;100241.63;7525620;26;20281;-83
2024/04/11 00:38:10;;;;;;;3.93;2.60;;;;;;;10.87;50.89;100223.94;7573909;26;20228;-83
2024/04/11 00:41:33;;;;;;;2.80;2.50;;;;;;;10.84;50.88;100235.03;7577207;26;20728;-83
2024/04/11 00:44:56;;;;;;;4.30;2.40;;;;;;;10.77;50.25;100220.56;7576907;26;20217;-83
2024/04/11 00:48:18;;;;;;;4.07;2.77;;;;;;;10.64;50.69;100218.38;7576372;26;20224;-83
2024/04/11 00:51:42;;;;;;;4.47;2.40;;;;;;;10.48;51.91;100229.22;7576966;26;20739;-83
2024/04/11 00:55:08;;;;;;;7.13;2.73;;;;;;;10.20;52.39;100221.63;7576965;26;20269;-83
2024/04/11 00:58:28;;;;;;;3.00;2.43;;;;;;;10.15;53.12;100214.06;7576468;26;20222;-84
2024/04/11 01:01:51;;;;;;;3.87;2.73;;;;;;;10.49;52.41;100225.50;7577072;26;20265;-83
2024/04/11 01:05:12;;;;;;;3.77;2.93;;;;;;;10.41;52.58;100217.44;7576069;26;20721;-82
2024/04/11 01:08:35;;;;;;;5.10;3.07;;;;;;;10.59;52.45;100203.75;7574981;26;20248;-82
2024/04/11 01:11:58;;;;;;;5.47;2.63;;;;;;;10.83;51.29;100223.44;7576047;26;20218;-81
2024/04/11 01:15:22;;;;;;;3.57;2.73;;;;;;;10.77;51.53;100215.16;7576235;26;20726;-82
2024/04/11 01:18:45;;;;;;;3.07;2.63;;;;;;;10.46;51.98;100208.81;7575133;26;20252;-81
2024/04/11 01:22:05;;;;;;;4.67;3.00;;;;;;;9.59;54.53;100215.81;7571818;26;20233;-81
2024/04/11 01:25:31;;;;;;;4.83;2.53;;;;;;;10.32;53.48;100210.34;7533172;26;20239;-82
2024/04/11 01:28:52;;;;;;;4.67;2.80;;;;;;;10.63;52.51;100189.75;7575313;26;20265;-82
2024/04/11 01:32:15;;;;;;;3.63;3.00;;;;;;;10.33;52.49;100211.22;7576752;26;20229;-80
2024/04/11 01:35:35;;;;;;;3.50;2.70;;;;;;;10.32;53.15;100223.81;7577726;26;20264;-81
2024/04/11 01:38:59;;;;;;;5.87;2.80;;;;;;;10.36;53.02;100238.66;7575042;26;20230;-82
2024/04/11 01:42:22;;;;;;;8.13;2.90;;;;;;;10.43;52.94;100230.72;7581271;26;20214;-82
2024/04/11 01:45:46;;;;;;;2.93;2.63;;;;;;;10.24;53.19;100229.22;7583573;26;20296;-80
2024/04/11 01:49:06;;;;;;;4.43;2.80;;;;;;;10.13;52.87;100248.44;7593077;26;20222;-82
2024/04/11 01:52:29;;;;;;;2.70;2.50;;;;;;;10.05;53.91;100240.31;7576968;26;20226;-82
2024/04/11 01:55:53;;;;;;;5.37;3.00;;;;;;;10.18;53.31;100239.84;7576356;26;20235;-81
2024/04/11 01:59:16;;;;;;;5.00;2.73;;;;;;;10.33;52.72;100232.78;7575065;26;20237;-81
2024/04/11 02:02:40;;;;;;;3.17;2.53;;;;;;;10.28;51.99;100235.94;7576936;26;20295;-82
2024/04/11 02:06:04;;;;;;;3.20;2.83;;;;;;;10.30;52.92;100227.69;7576450;26;20727;-81
2024/04/11 02:09:27;;;;;;;5.03;3.23;;;;;;;10.63;51.43;100242.84;7575177;26;20275;-81
2024/04/11 02:12:51;;;;;;;4.07;2.40;;;;;;;9.75;52.75;100229.31;7576921;26;20240;-81
2024/04/11 02:16:16;;;;;;;8.30;3.10;;;;;;;9.20;55.56;100236.19;7576296;26;20820;-81
2024/04/11 02:19:37;;;;;;;4.30;2.80;;;;;;;9.63;53.38;100227.94;7588361;26;20237;-82
2024/04/11 02:23:00;;;;;;;5.10;3.20;;;;;;;9.39;54.94;100235.94;7590702;26;20336;-82
2024/04/11 02:26:22;;;;;;;3.83;2.63;;;;;;;9.91;54.28;100230.16;7577262;26;20221;-82
2024/04/11 02:29:47;;;;;;;3.17;2.70;;;;;;;10.07;53.29;100249.09;7571798;26;20245;-81
2024/04/11 02:33:10;;;;;;;3.97;3.03;;;;;;;9.92;52.45;100245.31;7571811;26;20332;-82
2024/04/11 02:36:34;;;;;;;5.33;2.70;;;;;;;9.61;53.31;100246.94;7570957;26;20265;-82
2024/04/11 02:39:55;;;;;;;5.57;2.80;;;;;;;9.68;53.38;100258.75;7570851;26;20610;-82
2024/04/11 02:43:18;;;;;;;4.13;3.10;;;;;;;9.78;53.68;100254.06;7572102;26;20276;-82
2024/04/11 02:46:39;;;;;;;4.47;3.33;;;;;;;9.81;52.86;100253.72;7571311;26;20252;-82
2024/04/11 02:50:06;;;;;;;4.07;2.73;;;;;;;9.77;52.68;100246.13;7569919;26;20221;-82
2024/04/11 02:53:29;;;;;;;6.87;2.67;;;;;;;9.72;52.44;100248.47;7570919;26;20279;-82
2024/04/11 02:56:52;;;;;;;5.70;2.70;;;;;;;9.58;53.41;100262.59;7569876;26;20237;-82
2024/04/11 03:00:16;;;;;;;4.60;3.07;;;;;;;9.51;52.92;100250.78;7572304;26;20592;-81
2024/04/11 03:03:40;;;;;;;6.10;2.90;;;;;;;9.08;54.10;100259.00;7571651;26;20693;-81
2024/04/11 03:07:06;;;;;;;4.43;3.00;;;;;;;8.96;54.53;100259.44;7570645;26;20232;-82
2024/04/11 03:10:29;;;;;;;3.73;3.37;;;;;;;9.25;55.26;100268.84;7571108;26;20537;-82
2024/04/11 03:13:50;;;;;;;5.87;2.80;;;;;;;9.21;54.92;100265.63;7570997;26;20229;-82
2024/04/11 03:17:13;;;;;;;3.80;3.00;;;;;;;9.56;54.71;100288.84;7569911;26;20251;-82
2024/04/11 03:20:36;;;;;;;5.30;3.00;;;;;;;9.79;53.26;100269.22;7571483;26;20585;-81
2024/04/11 03:24:02;;;;;;;3.10;2.80;;;;;;;9.73;53.26;100277.09;7560276;26;20276;-82
2024/04/11 03:27:23;;;;;;;3.17;2.87;;;;;;;8.90;54.22;100287.81;7570592;26;20214;-82
2024/04/11 03:30:55;;;;;;;3.97;3.33;;;;;;;9.02;55.98;100265.03;7570912;26;20638;-81
2024/04/11 03:34:15;;;;;;;4.77;3.10;;;;;;;9.42;54.92;100284.06;7571787;26;20257;-82
2024/04/11 03:37:38;;;;;;;4.60;3.07;;;;;;;9.39;53.70;100268.25;7569888;26;20217;-82
2024/04/11 03:41:07;;;;;;;3.10;2.83;;;;;;;9.29;54.01;100264.84;7571685;26;20276;-82
2024/04/11 03:44:31;;;;;;;6.83;3.17;;;;;;;9.44;54.03;100269.44;7570604;26;20217;-82
2024/04/11 03:47:54;;;;;;;2.80;2.60;;;;;;;9.61;53.36;100264.94;7570718;26;20264;-82
2024/04/11 03:51:19;;;;;;;7.17;3.27;;;;;;;8.78;55.86;100272.13;7570427;26;20272;-82
2024/04/11 03:54:40;;;;;;;8.43;3.40;;;;;;;9.06;55.68;100271.78;7570224;26;20253;-81
2024/04/11 03:58:07;;;;;;;8.87;3.43;;;;;;;8.79;55.86;100282.69;7570404;26;20226;-81
2024/04/11 04:01:30;;;;;;;6.47;3.10;;;;;;;9.19;55.45;100266.78;7571788;26;20322;-82
2024/04/11 04:04:53;;;;;;;13.73;8.33;;;;;;;9.19;55.49;100277.56;7576560;26;20716;-82
2024/04/11 04:08:17;;;;;;;5.97;4.10;;;;;;;9.12;55.11;100276.53;7575755;26;20224;-81
2024/04/11 04:11:41;;;;;;;8.20;3.40;;;;;;;9.38;54.92;100266.53;7576511;26;20276;-81
2024/04/11 04:15:08;;;;;;;4.20;3.20;;;;;;;9.47;54.36;100269.13;7575272;26;20220;-81
2024/04/11 04:18:31;;;;;;;5.67;3.40;;;;;;;9.15;54.08;100243.94;7575530;26;20673;-82
2024/04/11 04:21:54;;;;;;;5.57;3.43;;;;;;;9.17;54.67;100280.41;7576472;26;20280;-82
2024/04/11 04:25:16;;;;;;;5.20;3.40;;;;;;;9.20;55.36;100296.25;7576667;26;20627;-81
2024/04/11 04:28:41;;;;;;;5.40;3.10;;;;;;;9.40;54.81;100294.16;7575056;26;20230;-81
2024/04/11 04:32:09;;;;;;;3.70;2.93;;;;;;;9.17;54.88;100291.16;7580970;26;20220;-80
2024/04/11 04:35:33;;;;;;;5.40;3.50;;;;;;;9.48;54.35;100295.03;7578370;26;20285;-81
2024/04/11 04:38:56;;;;;;;5.10;3.00;;;;;;;9.41;54.04;100293.16;7575562;26;20261;-82
2024/04/11 04:42:19;;;;;;;3.80;2.90;;;;;;;9.50;53.67;100301.09;7575342;26;20217;-78
2024/04/11 04:45:44;;;;;;;3.20;2.90;;;;;;;9.49;53.47;100314.72;7574556;26;20269;-80
2024/04/11 04:49:11;;;;;;;6.27;3.33;;;;;;;9.37;52.85;100318.69;7548524;26;20254;-79
2024/04/11 04:52:32;;;;;;;6.00;3.43;;;;;;;9.12;54.50;100316.88;7524610;26;20227;-79
2024/04/11 04:55:56;;;;;;;4.37;3.07;;;;;;;8.85;55.22;100322.41;7527485;26;20231;-79
2024/04/11 04:59:19;;;;;;;5.57;3.33;;;;;;;8.84;56.19;100330.66;7522320;26;20239;-79
2024/04/11 05:02:42;;;;;;;5.67;3.67;;;;;;;9.12;54.79;100306.13;7524991;26;20230;-78
2024/04/11 05:06:12;;;;;;;7.70;3.40;;;;;;;9.48;54.43;100340.81;7552971;26;20238;-80
2024/04/11 05:09:35;;;;;;;3.90;3.10;;;;;;;9.28;54.44;100346.59;7544699;26;20717;-79
2024/04/11 05:12:59;;;;;;;7.57;3.50;;;;;;;9.23;54.81;100340.84;7522360;26;20265;-79
2024/04/11 05:16:19;;;;;;;3.77;3.37;;;;;;;9.11;55.27;100336.72;7549389;26;20732;-79
2024/04/11 05:19:43;;;;;;;4.40;3.20;;;;;;;9.52;54.39;100349.41;7571134;26;20300;-80
2024/04/11 05:23:06;;;;;;;4.07;2.93;;;;;;;9.57;53.81;100358.66;7571885;26;20236;-79
2024/04/11 05:26:30;;;;;;;4.97;3.73;;;;;;;9.31;54.70;100357.00;7571521;26;20241;-79
2024/04/11 05:29:50;;;;;;;3.93;3.43;;;;;;;9.27;55.16;100361.88;7564236;26;20775;-79
2024/04/11 05:33:16;;;;;;;6.07;3.83;;;;;;;9.46;54.63;100363.50;7521246;26;20230;-78
2024/04/11 05:36:39;;;;;;;3.67;3.00;;;;;;;10.05;53.85;100363.44;7521335;26;20218;-78
2024/04/11 05:40:06;;;;;;;5.00;3.10;;;;;;;10.00;51.72;100360.38;7520283;26;20277;-78
2024/04/11 05:43:27;;;;;;;10.23;3.60;;;;;;;9.82;53.70;100367.72;7522305;26;20585;-80
2024/04/11 05:46:50;;;;;;;7.97;3.70;;;;;;;9.76;54.31;100368.38;7524920;26;20273;-79
2024/04/11 05:50:10;;;;;;;5.00;4.13;;;;;;;10.09;53.77;100372.91;7525489;26;20589;-80
2024/04/11 05:53:36;;;;;;;4.23;3.60;;;;;;;10.64;53.10;100365.91;7523610;26;20771;-79
2024/04/11 05:57:01;;;;;;;4.53;3.73;;;;;;;11.08;51.78;100361.84;7564526;26;20237;-80
2024/04/11 06:00:24;;;;;;;6.50;3.63;;;;;;;11.22;50.66;100348.50;7573899;26;20280;-80
2024/04/11 06:03:50;;;;;;;5.50;3.50;;;;;;;10.87;52.04;100340.78;7573654;26;20225;-80
2024/04/11 06:07:11;;;;;;;4.83;3.30;;;;;;;10.92;52.17;100351.09;7572411;26;20341;-80
2024/04/11 06:10:34;;;;;;;3.97;3.60;;;;;;;11.18;51.70;100357.13;7574015;26;20236;-80
2024/04/11 06:14:00;;;;;;;6.40;3.87;;;;;;;11.73;51.03;100366.97;7573412;26;20772;-80
2024/04/11 06:17:23;;;;;;;5.50;3.60;;;;;;;12.24;49.43;100366.38;7572409;26;20280;-80
2024/04/11 06:20:46;;;;;;;7.03;3.67;;;;;;;11.65;50.09;100361.59;7573181;26;20593;-78
2024/04/11 06:24:10;;;;;;;4.17;3.77;;;;;;;11.96;50.58;100383.25;7572343;26;20232;-80
2024/04/11 06:27:33;;;;;;;6.43;3.77;;;;;;;12.30;50.05;100370.22;7573303;26;20224;-82
2024/04/11 06:30:56;;;;;;;6.37;3.97;;;;;;;12.77;48.92;100384.44;7573888;26;20238;-81
2024/04/11 06:34:20;;;;;;;5.23;3.70;;;;;;;12.69;49.93;100366.41;7573569;26;20230;-81
2024/04/11 06:37:44;;;;;;;4.13;3.63;;;;;;;13.25;49.44;100379.50;7575527;26;20230;-81
2024/04/11 06:41:08;;;;;;;5.40;4.03;;;;;;;13.00;49.74;100369.91;7572996;26;20337;-81
2024/04/11 06:44:32;;;;;;;7.23;4.00;;;;;;;13.64;48.38;100380.06;7557192;26;20731;-81
2024/04/11 06:47:57;;;;;;;7.83;3.63;;;;;;;14.07;46.72;100378.38;7575333;26;20309;-81
2024/04/11 06:51:21;;;;;;;6.37;3.80;;;;;;;13.89;47.03;100372.50;7572749;26;20275;-82
2024/04/11 06:54:46;;;;;;;6.90;3.83;;;;;;;13.86;47.38;100372.91;7582285;26;20288;-82
2024/04/11 06:58:10;;;;;;;5.80;3.93;;;;;;;14.47;46.68;100372.44;7572372;26;20291;-81
2024/04/11 07:01:33;;;;;;;11.63;4.53;;;;;;;15.06;44.63;100363.84;7572201;26;20261;-81
2024/04/11 07:05:01;;;;;;;4.87;3.57;;;;;;;15.04;44.34;100355.03;7572368;26;20320;-81
2024/04/11 07:08:29;;;;;;;6.70;3.60;;;;;;;14.99;45.60;100372.97;7573327;26;20235;-86
2024/04/11 07:11:58;;;;;;;6.27;3.40;;;;;;;15.58;44.38;100374.31;7530755;26;20330;-85
2024/04/11 07:15:42;;;;;;;6.77;3.80;;;;;;;17.55;39.43;100372.78;7538027;26;20567;-86
2024/04/11 07:19:08;;;;;;;3.73;3.00;;;;;;;18.09;38.55;100378.75;7525349;26;20388;-90
2024/04/11 07:22:49;;;;;;;5.47;3.00;;;;;;;18.52;36.69;100377.16;7532671;26;20711;-86
2024/04/11 07:26:15;;;;;;;4.33;3.37;;;;;;;17.37;37.09;100380.75;7534508;26;20778;-86
2024/04/11 07:29:39;;;;;;;6.47;3.57;;;;;;;17.90;37.52;100371.47;7556035;26;20250;-87
2024/04/11 07:33:06;;;;;;;4.77;2.53;;;;;;;18.00;36.61;100355.50;7573142;26;20237;-86
2024/04/11 07:36:28;;;;;;;4.37;2.90;;;;;;;17.23;36.70;100339.03;7552941;26;20342;-83
2024/04/11 07:39:55;;;;;;;5.17;2.87;;;;;;;18.57;37.33;100367.22;7538882;26;20242;-83
2024/04/11 07:43:21;;;;;;;6.63;3.20;;;;;;;18.16;38.83;100374.94;7578722;26;20222;-84
2024/04/11 07:46:58;;;;;;;4.93;3.00;;;;;;;18.66;38.33;100381.47;7582235;26;20281;-86
2024/04/11 07:50:22;;;;;;;6.03;3.50;;;;;;;18.52;37.09;100388.06;7588093;26;20268;-86
2024/04/11 07:53:47;;;;;;;7.43;3.40;;;;;;;17.96;38.01;100381.53;7585243;26;20226;-86
2024/04/11 07:57:12;;;;;;;7.73;3.37;;;;;;;18.77;37.00;100358.91;7582003;26;20598;-88
2024/04/11 08:00:39;;;;;;;5.97;2.90;;;;;;;18.23;37.01;100372.22;7576003;26;20245;-86
2024/04/11 08:04:02;;;;;;;4.07;2.83;;;;;;;19.41;35.72;100376.72;7573519;26;20222;-85
2024/04/11 08:07:26;;;;;;;9.20;3.70;;;;;;;18.95;37.00;100372.66;7573241;26;20268;-83
2024/04/11 08:10:50;;;;;;;4.53;2.50;;;;;;;18.93;36.51;100370.16;7554483;26;20226;-81
2024/04/11 08:14:16;;;;;;;5.07;2.87;;;;;;;20.63;33.77;100353.66;7571417;26;20287;-83
2024/04/11 08:17:37;;;;;;;5.40;3.40;;;;;;;21.49;32.29;100350.19;7536624;26;20307;-82
2024/04/11 08:21:03;;;;;;;6.03;3.17;;;;;;;21.59;32.14;100363.34;7524464;26;20578;-86
2024/04/11 08:24:24;;;;;;;4.43;2.50;;;;;;;21.33;33.14;100361.88;7522453;26;20310;-85
2024/04/11 08:27:48;;;;;;;6.07;2.90;;;;;;;20.17;35.54;100369.03;7528253;26;20256;-85
2024/04/11 08:31:15;;;;;;;6.47;3.07;;;;;;;21.60;32.90;100368.56;7573968;26;20590;-82
2024/04/11 08:34:38;;;;;;;4.70;3.20;;;;;;;21.42;33.13;100379.66;7574290;26;20239;-83
2024/04/11 08:38:03;;;;;;;4.40;2.70;;;;;;;21.24;33.44;100374.25;7572794;26;20219;-83
2024/04/11 08:41:26;;;;;;;6.73;3.63;;;;;;;21.31;32.90;100377.72;7543425;26;20249;-82
2024/04/11 08:44:47;;;;;;;5.37;3.00;;;;;;;21.72;32.30;100374.94;7559295;26;20223;-84
2024/04/11 08:48:13;;;;;;;4.10;2.73;;;;;;;22.56;31.30;100377.94;7575007;26;21009;-85
2024/04/11 08:51:39;;;;;;;6.50;3.10;;;;;;;21.66;31.65;100381.34;7574003;26;20275;-83
2024/04/11 08:55:02;;;;;;;5.83;3.77;;;;;;;22.19;31.95;100378.47;7572571;26;20232;-82
2024/04/11 08:58:23;;;;;;;6.13;3.00;;;;;;;21.23;32.73;100376.41;7571846;26;20224;-82
2024/04/11 09:01:46;;;;;;;5.13;2.80;;;;;;;22.39;31.15;100366.00;7573303;26;20240;-82
2024/04/11 09:05:11;;;;;;;4.30;2.40;;;;;;;22.88;29.62;100365.34;7573986;26;20241;-83
2024/04/11 09:08:34;;;;;;;6.10;2.33;;;;;;;23.03;29.76;100365.63;7575690;26;20231;-82
2024/04/11 09:11:58;;;;;;;4.87;2.90;;;;;;;21.75;30.26;100385.44;7577754;26;20239;-83
2024/04/11 09:15:18;;;;;;;3.67;2.30;;;;;;;21.65;31.24;100373.38;7579063;26;20297;-83
2024/04/11 09:18:43;;;;;;;2.63;2.40;;;;;;;22.42;30.22;100375.66;7577905;26;20239;-83
2024/04/11 09:22:12;;;;;;;5.60;2.57;;;;;;;21.39;30.82;100382.03;7579410;26;20309;-82
2024/04/11 09:25:34;;;;;;;7.33;2.60;;;;;;;23.19;29.33;100378.59;7579784;26;20221;-84
2024/04/11 09:28:57;;;;;;;7.87;2.83;;;;;;;22.99;29.89;100360.84;7580188;26;20731;-82
2024/04/11 09:32:21;;;;;;;4.57;2.67;;;;;;;22.37;29.60;100378.31;7578470;26;20802;-82
2024/04/11 09:35:52;;;;;;;5.23;2.13;;;;;;;23.34;28.16;100373.34;7577901;26;20227;-83
2024/04/11 09:39:41;;;;;;;5.90;2.60;;;;;;;23.36;28.28;100367.59;7576016;26;20302;-82
2024/04/11 09:43:10;;;;;;;6.33;2.53;;;;;;;23.80;28.68;100370.25;7576986;26;20227;-84
2024/04/11 09:46:31;;;;;;;5.90;2.17;;;;;;;23.51;25.75;100373.34;7575982;26;20272;-83
2024/04/11 09:49:59;;;;;;;5.17;2.30;;;;;;;21.30;28.41;100377.97;7576045;26;20254;-85
2024/04/11 09:53:26;;;;;;;6.67;2.57;;;;;;;21.39;29.53;100366.41;7577681;26;20285;-87
2024/04/11 09:56:52;;;;;;;3.27;2.10;;;;;;;22.26;27.25;100371.78;7573790;26;20242;-84
2024/04/11 10:00:22;;;;;;;4.67;2.57;;;;;;;23.31;27.23;100373.84;7572622;26;20735;-84
2024/04/11 10:03:48;;;;;;;2.60;1.90;;;;;;;23.70;25.82;100372.84;7574964;26;20218;-85
2024/04/11 10:07:16;;;;;;;6.57;2.57;;;;;;;22.20;25.06;100377.41;7573770;26;20216;-87
2024/04/11 10:10:42;;;;;;;4.07;1.70;;;;;;;22.16;25.27;100389.94;7574087;26;20235;-84
2024/04/11 10:14:10;;;;;;;2.87;2.07;;;;;;;21.89;26.18;100383.28;7587594;26;20285;-84
2024/04/11 10:17:32;;;;;;;5.47;2.23;;;;;;;22.29;25.87;100387.75;7576332;26;20318;-84
2024/04/11 10:20:59;;;;;;;1.83;1.67;;;;;;;22.29;25.34;100389.66;7570482;26;20244;-85
2024/04/11 10:24:27;;;;;;;3.27;2.07;;;;;;;21.69;26.10;100388.28;7569776;26;20241;-84
2024/04/11 10:27:51;;;;;;;4.60;1.97;;;;;;;21.87;26.17;100389.03;7571900;26;20263;-88
2024/04/11 10:31:22;;;;;;;3.07;1.97;;;;;;;22.06;25.52;100387.81;7570059;26;20286;-86
2024/04/11 10:34:47;;;;;;;5.53;2.20;;;;;;;23.23;24.82;100376.16;7571813;26;20221;-86
2024/04/11 10:38:12;;;;;;;2.53;1.70;;;;;;;23.76;24.33;100376.50;7573920;26;20222;-85
2024/04/11 10:41:33;;;;;;;2.73;1.73;;;;;;;23.47;24.70;100381.28;7573318;26;20231;-85
2024/04/11 10:44:57;;;;;;;5.37;2.10;;;;;;;24.33;23.70;100367.72;7571742;26;20217;-84
2024/04/11 10:48:20;;;;;;;4.73;2.23;;;;;;;24.65;23.94;100382.47;7570938;26;20604;-85
2024/04/11 10:51:43;;;;;;;4.30;2.03;;;;;;;24.10;24.40;100392.75;7569091;26;20233;-85
2024/04/11 10:55:12;;;;;;;4.67;1.90;;;;;;;24.68;23.63;100357.13;7569661;26;20244;-84
2024/04/11 10:58:36;;;;;;;2.97;1.90;;;;;;;25.35;22.68;100374.94;7570972;26;20767;-89
2024/04/11 11:02:07;;;;;;;3.53;1.80;;;;;;;24.96;23.30;100332.00;7571299;26;20245;-89
2024/04/11 11:05:33;;;;;;;5.20;2.33;;;;;;;23.57;25.16;100353.91;7570812;26;20256;-89
2024/04/11 11:08:55;;;;;;;3.30;2.20;;;;;;;23.64;25.80;100371.09;7570396;26;20263;-89
2024/04/11 11:12:18;;;;;;;3.73;2.37;;;;;;;24.04;25.34;100360.69;7532368;26;20287;-89
2024/04/11 11:15:40;;;;;;;5.03;2.60;;;;;;;23.11;26.70;100364.38;7527525;26;20230;-89
2024/04/11 11:19:05;;;;;;;5.40;3.07;;;;;;;22.64;27.08;100366.53;7525325;26;20237;-89
2024/04/11 11:22:51;;;;;;;4.80;2.60;;;;;;;22.96;27.10;100333.84;7525957;26;20259;-89
2024/04/11 11:26:36;;;;;;;3.63;2.33;;;;;;;23.92;26.39;100299.34;7531123;26;20218;-89
2024/04/11 11:52:44;;;;;;;3.67;2.40;;;;;;;24.89;24.35;100336.91;7522403;24;20261;-88
2024/04/11 12:42:56;;;;;;;3.90;1.90;;;;;;;23.31;25.42;100265.66;7520623;26;20232;-87
2024/04/11 12:46:22;;;;;;;3.47;2.23;;;;;;;24.45;24.11;100276.56;7523216;26;20229;-84
2024/04/11 12:49:49;;;;;;;6.20;2.23;;;;;;;25.31;23.39;100266.09;7509413;26;20232;-86
2024/04/11 12:53:10;;;;;;;5.03;1.90;;;;;;;25.34;23.40;100215.88;7477296;26;20270;-86
2024/04/11 12:56:33;;;;;;;3.83;2.50;;;;;;;25.84;22.33;100282.44;7477451;26;20245;-81
2024/04/11 13:00:07;;;;;;;5.27;1.80;;;;;;;25.84;22.25;100279.69;7477072;26;20280;-82
2024/04/11 13:03:52;;;;;;;4.10;2.13;;;;;;;24.55;23.11;100285.75;7475154;26;20228;-82
2024/04/11 13:07:13;;;;;;;4.43;2.20;;;;;;;24.59;23.96;100270.41;7475137;26;20330;-82
2024/04/11 13:10:36;;;;;;;3.47;2.30;;;;;;;25.18;23.39;100265.69;7471134;26;20253;-82
2024/04/11 13:14:01;;;;;;;7.13;2.30;;;;;;;25.08;23.02;100249.88;7433641;26;20297;-83
2024/04/11 13:17:27;;;;;;;2.50;1.60;;;;;;;25.92;22.64;100245.19;7432705;26;20297;-82
2024/04/11 13:20:52;;;;;;;2.17;1.73;;;;;;;25.98;22.39;100269.84;7448275;26;20237;-81
2024/04/11 13:24:20;;;;;;;3.27;1.90;;;;;;;25.39;22.07;100267.53;7464932;26;20270;-81
2024/04/11 13:27:40;;;;;;;3.27;1.83;;;;;;;25.88;22.12;100257.84;7476228;26;20258;-81
2024/04/11 13:31:10;;;;;;;3.03;2.00;;;;;;;25.15;22.41;100249.66;7476880;26;20240;-81
2024/04/11 13:34:50;;;;;;;2.63;1.67;;;;;;;22.64;25.09;100259.28;7463024;26;20271;-81
2024/04/11 13:38:17;;;;;;;4.83;2.50;;;;;;;24.26;23.88;100247.69;7474161;26;20277;-80
2024/04/11 13:41:48;;;;;;;4.03;1.97;;;;;;;24.81;24.17;100234.47;7473890;26;20611;-81
2024/04/11 13:45:22;;;;;;;2.73;2.10;;;;;;;24.38;23.09;100237.34;7476398;26;20219;-82
2024/04/11 13:48:47;;;;;;;3.87;2.20;;;;;;;24.19;23.33;100236.84;7483745;26;20326;-82
2024/04/11 13:52:26;;;;;;;4.10;2.00;;;;;;;24.66;23.15;100229.63;7481832;26;20226;-83
2024/04/11 13:55:53;;;;;;;7.07;1.97;;;;;;;24.59;24.04;100220.75;7473620;26;20277;-82
2024/04/11 13:59:16;;;;;;;4.23;2.20;;;;;;;24.94;23.30;100221.06;7480795;26;20302;-82
2024/04/11 14:02:46;;;;;;;4.57;2.00;;;;;;;23.31;25.37;100225.19;7481687;26;20268;-82
2024/04/11 14:06:27;;;;;;;2.47;1.70;;;;;;;23.83;24.33;100218.19;7479458;26;20606;-82
2024/04/11 14:09:55;;;;;;;3.97;2.07;;;;;;;23.98;23.91;100206.56;7476892;26;20349;-82
2024/04/11 14:13:18;;;;;;;2.60;1.87;;;;;;;22.55;26.00;100208.50;7464478;26;20673;-82
2024/04/11 14:16:51;;;;;;;4.00;1.80;;;;;;;23.50;24.51;100211.97;7471817;26;20265;-80
2024/04/11 14:20:31;;;;;;;2.73;1.70;;;;;;;23.17;25.29;100195.53;7472733;26;20800;-80
2024/04/11 14:24:04;;;;;;;2.87;1.90;;;;;;;24.44;24.13;100204.03;7476062;26;20265;-82
2024/04/11 14:27:31;;;;;;;4.20;1.90;;;;;;;24.45;23.66;100194.66;7474983;26;20594;-82
2024/04/11 14:31:07;;;;;;;4.97;2.10;;;;;;;23.91;24.39;100198.50;7476738;26;20244;-83
2024/04/11 14:38:07;;;;;;;2.53;1.90;;;;;;;23.08;24.82;100197.84;7451986;26;20231;-85
2024/04/11 14:41:30;;;;;;;3.53;1.70;;;;;;;23.64;24.47;100161.78;7478717;26;20620;-85
2024/04/11 14:44:56;;;;;;;2.10;1.63;;;;;;;23.87;24.34;100191.84;7475144;26;20570;-86
2024/04/11 14:48:18;;;;;;;4.07;2.40;;;;;;;23.99;24.49;100188.94;7474209;26;20222;-82
2024/04/11 14:51:44;;;;;;;2.97;1.63;;;;;;;24.10;24.66;100169.50;7467614;26;20306;-82
2024/04/11 14:55:09;;;;;;;3.23;1.83;;;;;;;23.99;24.10;100180.66;7476884;26;20317;-84
2024/04/11 14:58:37;;;;;;;2.73;1.90;;;;;;;24.71;23.53;100173.69;7476105;26;20232;-86
2024/04/11 15:02:01;;;;;;;3.50;1.80;;;;;;;25.03;23.20;100164.28;7475870;26;20227;-84
2024/04/11 15:05:24;;;;;;;2.33;1.37;;;;;;;25.24;23.40;100176.31;7476809;26;20285;-84
2024/04/11 15:08:48;;;;;;;2.30;1.87;;;;;;;24.89;24.09;100179.63;7460792;26;20355;-84
2024/04/11 15:12:13;;;;;;;4.87;1.97;;;;;;;24.14;24.42;100170.63;7478804;26;20240;-84
2024/04/11 15:15:41;;;;;;;2.40;1.50;;;;;;;24.10;24.17;100174.16;7484981;26;20284;-84
2024/04/11 15:19:08;;;;;;;2.80;1.83;;;;;;;23.94;24.86;100175.94;7456598;26;21170;-84
2024/04/11 15:22:35;;;;;;;2.33;1.60;;;;;;;24.36;24.71;100167.84;7467777;26;20243;-83
2024/04/11 15:26:00;;;;;;;3.13;2.17;;;;;;;24.47;24.69;100172.31;7474514;26;20274;-83
2024/04/11 15:29:29;;;;;;;2.40;1.93;;;;;;;24.52;25.10;100181.50;7473862;26;20231;-83
2024/04/11 15:32:56;;;;;;;3.60;1.87;;;;;;;23.79;24.87;100170.19;7431923;26;20287;-83
2024/04/11 15:36:34;;;;;;;7.57;1.90;;;;;;;23.81;25.19;100157.03;7462594;26;20242;-83
2024/04/11 15:40:00;;;;;;;2.80;1.70;;;;;;;23.71;25.04;100172.59;7473104;26;20281;-84
2024/04/11 15:43:26;;;;;;;4.17;1.80;;;;;;;23.77;25.58;100182.59;7464506;26;20286;-87
2024/04/11 15:46:50;;;;;;;3.53;1.90;;;;;;;23.71;25.08;100167.91;7472580;26;20737;-84
2024/04/11 15:50:16;;;;;;;2.33;1.80;;;;;;;23.77;25.59;100166.06;7449668;26;20250;-84
2024/04/11 15:53:49;;;;;;;3.63;1.73;;;;;;;24.15;24.64;100172.31;7467806;26;20244;-86
2024/04/11 15:57:12;;;;;;;4.53;1.80;;;;;;;23.90;24.93;100169.25;7468616;26;20632;-84
2024/04/11 16:00:39;;;;;;;4.50;1.90;;;;;;;23.92;25.00;100186.38;7478432;26;20580;-85
2024/04/11 16:04:06;;;;;;;5.73;2.13;;;;;;;24.11;25.47;100186.84;7478783;26;20296;-84
2024/04/11 16:07:35;;;;;;;2.60;2.07;;;;;;;23.82;25.05;100166.94;7477139;26;20235;-84
2024/04/11 16:11:03;;;;;;;2.60;2.40;;;;;;;23.83;24.64;100170.53;7484522;26;20242;-86
2024/04/11 16:14:23;;;;;;;4.33;2.47;;;;;;;23.57;25.53;100168.56;7478978;26;20240;-88
2024/04/11 16:17:49;;;;;;;7.27;2.23;;;;;;;23.81;24.76;100178.22;7477735;26;20264;-88
2024/04/11 16:21:16;;;;;;;3.00;2.17;;;;;;;23.52;25.00;100149.22;7475674;26;20238;-88
2024/04/11 16:24:48;;;;;;;5.17;2.70;;;;;;;24.37;24.31;100170.31;7477407;26;20233;-88
2024/04/11 16:28:15;;;;;;;5.10;2.40;;;;;;;23.76;24.64;100176.25;7479487;26;20239;-88
2024/04/11 16:31:38;;;;;;;5.03;2.27;;;;;;;24.07;24.81;100166.44;7480962;26;20706;-89
2024/04/11 16:35:01;;;;;;;5.43;2.60;;;;;;;23.64;25.70;100159.03;7479962;26;20224;-87
2024/04/11 16:38:46;;;;;;;5.47;2.50;;;;;;;23.89;24.50;100159.34;7480371;26;20225;-86
2024/04/11 16:42:14;;;;;;;5.27;2.50;;;;;;;23.55;24.60;100143.22;7459343;26;20239;-86
2024/04/11 16:45:41;;;;;;;3.30;2.30;;;;;;;23.93;24.85;100178.94;7482276;26;20270;-87
2024/04/11 16:49:05;;;;;;;6.47;2.43;;;;;;;23.63;24.71;100162.03;7481311;26;20250;-88
2024/04/11 16:52:25;;;;;;;4.77;2.30;;;;;;;23.14;26.19;100124.47;7484207;26;20274;-87
2024/04/11 16:55:54;;;;;;;5.57;2.13;;;;;;;23.68;24.79;100142.81;7481589;26;20248;-87
2024/04/11 16:59:31;;;;;;;4.47;2.23;;;;;;;23.52;24.95;100188.59;7480376;26;20282;-86
2024/04/11 17:02:58;;;;;;;5.20;2.10;;;;;;;23.44;25.78;100185.47;7478581;26;20232;-89
2024/04/11 17:06:21;;;;;;;4.03;2.40;;;;;;;23.24;25.45;100163.19;7483154;26;20804;-90
2024/04/11 17:09:46;;;;;;;4.23;2.30;;;;;;;22.96;25.80;100144.00;7470136;26;20241;-91